sensor_id;sensor_type;location;lat;lon;timestamp;P1;durP1;ratioP1;P2;durP2;ratioP2
17725;SDS011;8983;53.156;17.960;2023-08-01T00:00:55;3.90;;;3.00;;
17725;SDS011;8983;53.156;17.960;2023-08-01T00:03:23;4.00;;;3.00;;
17725;SDS011;8983;53.156;17.960;2023-08-01T00:05:51;3.57;;;2.67;;
17725;SDS011;8983;53.156;17.960;2023-08-01T00:08:21;7.33;;;3.33;;
17725;SDS011;8983;53.156;17.960;2023-08-01T00:10:49;4.63;;;3.10;;
17725;SDS011;8983;53.156;17.960;2023-08-01T00:13:18;3.43;;;2.77;;
17725;SDS011;8983;53.156;17.960;2023-08-01T00:15:46;4.70;;;3.00;;
17725;SDS011;8983;53.156;17.960;2023-08-01T00:18:33;6.13;;;3.23;;
17725;SDS011;8983;53.156;17.960;2023-08-01T00:21:01;4.47;;;2.90;;
17725;SDS011;8983;53.156;17.960;2023-08-01T00:23:31;4.17;;;3.10;;
17725;SDS011;8983;53.156;17.960;2023-08-01T00:25:59;4.23;;;2.97;;
17725;SDS011;8983;53.156;17.960;2023-08-01T00:28:29;4.17;;;2.70;;
17725;SDS011;8983;53.156;17.960;2023-08-01T00:31:04;3.03;;;2.70;;
17725;SDS011;8983;53.156;17.960;2023-08-01T00:33:33;4.53;;;3.23;;
17725;SDS011;8983;53.156;17.960;2023-08-01T00:36:01;3.60;;;2.73;;
17725;SDS011;8983;53.156;17.960;2023-08-01T00:38:29;4.27;;;3.00;;
17725;SDS011;8983;53.156;17.960;2023-08-01T00:40:57;4.63;;;2.80;;
17725;SDS011;8983;53.156;17.960;2023-08-01T00:43:25;6.30;;;2.57;;
17725;SDS011;8983;53.156;17.960;2023-08-01T00:45:55;3.43;;;2.80;;
17725;SDS011;8983;53.156;17.960;2023-08-01T00:48:27;3.03;;;2.60;;
17725;SDS011;8983;53.156;17.960;2023-08-01T00:50:55;3.73;;;2.67;;
17725;SDS011;8983;53.156;17.960;2023-08-01T00:53:24;4.80;;;2.67;;
17725;SDS011;8983;53.156;17.960;2023-08-01T00:55:52;3.30;;;3.00;;
17725;SDS011;8983;53.156;17.960;2023-08-01T00:58:22;6.80;;;3.10;;
17725;SDS011;8983;53.156;17.960;2023-08-01T01:00:50;4.77;;;2.77;;
17725;SDS011;8983;53.156;17.960;2023-08-01T01:03:20;5.03;;;3.00;;
17725;SDS011;8983;53.156;17.960;2023-08-01T01:05:49;5.53;;;2.90;;
17725;SDS011;8983;53.156;17.960;2023-08-01T01:08:22;5.43;;;3.00;;
17725;SDS011;8983;53.156;17.960;2023-08-01T01:10:50;4.83;;;2.83;;
17725;SDS011;8983;53.156;17.960;2023-08-01T01:13:18;4.33;;;2.67;;
17725;SDS011;8983;53.156;17.960;2023-08-01T01:15:46;4.17;;;2.53;;
17725;SDS011;8983;53.156;17.960;2023-08-01T01:18:14;3.20;;;2.73;;
17725;SDS011;8983;53.156;17.960;2023-08-01T01:20:44;3.27;;;2.70;;
17725;SDS011;8983;53.156;17.960;2023-08-01T01:23:12;3.80;;;2.80;;
17725;SDS011;8983;53.156;17.960;2023-08-01T01:25:40;7.13;;;2.90;;
17725;SDS011;8983;53.156;17.960;2023-08-01T01:28:09;5.23;;;3.27;;
17725;SDS011;8983;53.156;17.960;2023-08-01T01:30:38;6.20;;;2.63;;
17725;SDS011;8983;53.156;17.960;2023-08-01T01:33:07;5.30;;;2.80;;
17725;SDS011;8983;53.156;17.960;2023-08-01T01:35:37;4.60;;;2.80;;
17725;SDS011;8983;53.156;17.960;2023-08-01T01:38:08;3.80;;;3.17;;
17725;SDS011;8983;53.156;17.960;2023-08-01T01:40:36;3.67;;;2.60;;
17725;SDS011;8983;53.156;17.960;2023-08-01T01:43:04;3.40;;;2.50;;
17725;SDS011;8983;53.156;17.960;2023-08-01T01:45:32;4.33;;;2.90;;
17725;SDS011;8983;53.156;17.960;2023-08-01T01:48:01;4.23;;;3.20;;
17725;SDS011;8983;53.156;17.960;2023-08-01T01:50:29;5.13;;;2.90;;
17725;SDS011;8983;53.156;17.960;2023-08-01T01:52:57;6.17;;;2.90;;
17725;SDS011;8983;53.156;17.960;2023-08-01T01:55:27;4.00;;;2.73;;
17725;SDS011;8983;53.156;17.960;2023-08-01T01:57:55;5.27;;;2.63;;
17725;SDS011;8983;53.156;17.960;2023-08-01T02:00:23;4.83;;;2.80;;
17725;SDS011;8983;53.156;17.960;2023-08-01T02:02:51;3.67;;;2.53;;
17725;SDS011;8983;53.156;17.960;2023-08-01T02:05:19;3.33;;;2.67;;
17725;SDS011;8983;53.156;17.960;2023-08-01T02:07:47;3.63;;;2.73;;
17725;SDS011;8983;53.156;17.960;2023-08-01T02:10:15;4.30;;;3.00;;
17725;SDS011;8983;53.156;17.960;2023-08-01T02:12:45;3.30;;;2.63;;
17725;SDS011;8983;53.156;17.960;2023-08-01T02:15:13;4.60;;;2.83;;
17725;SDS011;8983;53.156;17.960;2023-08-01T02:17:41;4.10;;;2.80;;
17725;SDS011;8983;53.156;17.960;2023-08-01T02:20:10;3.90;;;2.90;;
17725;SDS011;8983;53.156;17.960;2023-08-01T02:22:38;4.43;;;2.87;;
17725;SDS011;8983;53.156;17.960;2023-08-01T02:25:07;6.87;;;2.93;;
17725;SDS011;8983;53.156;17.960;2023-08-01T02:27:35;3.40;;;2.67;;
17725;SDS011;8983;53.156;17.960;2023-08-01T02:30:05;6.17;;;3.30;;
17725;SDS011;8983;53.156;17.960;2023-08-01T02:32:34;3.50;;;2.60;;
17725;SDS011;8983;53.156;17.960;2023-08-01T02:35:02;5.07;;;3.50;;
17725;SDS011;8983;53.156;17.960;2023-08-01T02:37:31;3.60;;;3.00;;
17725;SDS011;8983;53.156;17.960;2023-08-01T02:40:00;4.50;;;2.97;;
17725;SDS011;8983;53.156;17.960;2023-08-01T02:42:29;4.67;;;2.70;;
17725;SDS011;8983;53.156;17.960;2023-08-01T02:44:57;4.30;;;3.10;;
17725;SDS011;8983;53.156;17.960;2023-08-01T02:47:26;4.57;;;2.90;;
17725;SDS011;8983;53.156;17.960;2023-08-01T02:49:54;5.17;;;3.10;;
17725;SDS011;8983;53.156;17.960;2023-08-01T02:52:22;5.00;;;2.73;;
17725;SDS011;8983;53.156;17.960;2023-08-01T02:54:50;4.03;;;2.83;;
17725;SDS011;8983;53.156;17.960;2023-08-01T02:57:19;4.87;;;2.97;;
17725;SDS011;8983;53.156;17.960;2023-08-01T02:59:47;3.93;;;2.57;;
17725;SDS011;8983;53.156;17.960;2023-08-01T03:02:15;4.90;;;3.00;;
17725;SDS011;8983;53.156;17.960;2023-08-01T03:04:44;5.20;;;3.10;;
17725;SDS011;8983;53.156;17.960;2023-08-01T03:07:13;4.60;;;2.90;;
17725;SDS011;8983;53.156;17.960;2023-08-01T03:09:41;4.37;;;2.90;;
17725;SDS011;8983;53.156;17.960;2023-08-01T03:12:10;6.10;;;3.33;;
17725;SDS011;8983;53.156;17.960;2023-08-01T03:14:38;3.50;;;2.80;;
17725;SDS011;8983;53.156;17.960;2023-08-01T03:17:07;4.17;;;3.20;;
17725;SDS011;8983;53.156;17.960;2023-08-01T03:19:36;6.67;;;3.43;;
17725;SDS011;8983;53.156;17.960;2023-08-01T03:22:06;3.53;;;2.83;;
17725;SDS011;8983;53.156;17.960;2023-08-01T03:24:35;5.27;;;3.20;;
17725;SDS011;8983;53.156;17.960;2023-08-01T03:27:03;3.30;;;3.00;;
17725;SDS011;8983;53.156;17.960;2023-08-01T03:29:32;3.83;;;3.20;;
17725;SDS011;8983;53.156;17.960;2023-08-01T03:32:00;4.57;;;3.13;;
17725;SDS011;8983;53.156;17.960;2023-08-01T03:34:28;5.30;;;2.77;;
17725;SDS011;8983;53.156;17.960;2023-08-01T03:36:56;6.40;;;3.17;;
17725;SDS011;8983;53.156;17.960;2023-08-01T03:39:25;6.43;;;3.13;;
17725;SDS011;8983;53.156;17.960;2023-08-01T03:41:53;5.13;;;2.70;;
17725;SDS011;8983;53.156;17.960;2023-08-01T03:44:22;5.47;;;2.73;;
17725;SDS011;8983;53.156;17.960;2023-08-01T03:46:50;4.33;;;2.83;;
17725;SDS011;8983;53.156;17.960;2023-08-01T03:49:19;5.20;;;3.00;;
17725;SDS011;8983;53.156;17.960;2023-08-01T03:51:47;5.37;;;3.40;;
17725;SDS011;8983;53.156;17.960;2023-08-01T03:54:15;3.93;;;3.10;;
17725;SDS011;8983;53.156;17.960;2023-08-01T03:56:44;6.00;;;3.27;;
17725;SDS011;8983;53.156;17.960;2023-08-01T03:59:12;4.53;;;3.53;;
17725;SDS011;8983;53.156;17.960;2023-08-01T04:01:41;4.47;;;3.10;;
17725;SDS011;8983;53.156;17.960;2023-08-01T04:04:10;5.20;;;2.90;;
17725;SDS011;8983;53.156;17.960;2023-08-01T04:06:38;4.37;;;3.27;;
17725;SDS011;8983;53.156;17.960;2023-08-01T04:09:07;6.00;;;3.33;;
17725;SDS011;8983;53.156;17.960;2023-08-01T04:11:35;7.13;;;3.70;;
17725;SDS011;8983;53.156;17.960;2023-08-01T04:14:04;5.07;;;3.57;;
17725;SDS011;8983;53.156;17.960;2023-08-01T04:16:32;6.47;;;3.47;;
17725;SDS011;8983;53.156;17.960;2023-08-01T04:19:00;3.93;;;3.17;;
17725;SDS011;8983;53.156;17.960;2023-08-01T04:21:28;8.30;;;3.90;;
17725;SDS011;8983;53.156;17.960;2023-08-01T04:23:57;5.33;;;3.43;;
17725;SDS011;8983;53.156;17.960;2023-08-01T04:26:27;4.97;;;3.43;;
17725;SDS011;8983;53.156;17.960;2023-08-01T04:28:55;4.03;;;3.27;;
17725;SDS011;8983;53.156;17.960;2023-08-01T04:31:25;7.27;;;3.87;;
17725;SDS011;8983;53.156;17.960;2023-08-01T04:33:53;5.50;;;3.67;;
17725;SDS011;8983;53.156;17.960;2023-08-01T04:36:21;5.90;;;3.63;;
17725;SDS011;8983;53.156;17.960;2023-08-01T04:38:50;5.30;;;3.90;;
17725;SDS011;8983;53.156;17.960;2023-08-01T04:41:18;7.80;;;3.73;;
17725;SDS011;8983;53.156;17.960;2023-08-01T04:43:46;7.53;;;3.97;;
17725;SDS011;8983;53.156;17.960;2023-08-01T04:46:14;5.43;;;3.83;;
17725;SDS011;8983;53.156;17.960;2023-08-01T04:48:43;7.93;;;3.50;;
17725;SDS011;8983;53.156;17.960;2023-08-01T04:51:11;6.03;;;4.10;;
17725;SDS011;8983;53.156;17.960;2023-08-01T04:53:39;5.43;;;3.60;;
17725;SDS011;8983;53.156;17.960;2023-08-01T04:56:07;3.97;;;3.40;;
17725;SDS011;8983;53.156;17.960;2023-08-01T04:58:35;6.40;;;3.83;;
17725;SDS011;8983;53.156;17.960;2023-08-01T05:01:03;4.80;;;3.90;;
17725;SDS011;8983;53.156;17.960;2023-08-01T05:03:32;7.03;;;3.93;;
17725;SDS011;8983;53.156;17.960;2023-08-01T05:06:01;5.43;;;3.90;;
17725;SDS011;8983;53.156;17.960;2023-08-01T05:08:29;4.23;;;3.80;;
17725;SDS011;8983;53.156;17.960;2023-08-01T05:10:57;5.67;;;3.80;;
17725;SDS011;8983;53.156;17.960;2023-08-01T05:13:25;4.53;;;3.80;;
17725;SDS011;8983;53.156;17.960;2023-08-01T05:15:53;5.87;;;4.07;;
17725;SDS011;8983;53.156;17.960;2023-08-01T05:18:21;5.20;;;3.63;;
17725;SDS011;8983;53.156;17.960;2023-08-01T05:20:49;7.37;;;3.80;;
17725;SDS011;8983;53.156;17.960;2023-08-01T05:23:19;6.13;;;4.30;;
17725;SDS011;8983;53.156;17.960;2023-08-01T05:25:47;5.77;;;4.17;;
17725;SDS011;8983;53.156;17.960;2023-08-01T05:28:15;6.73;;;4.43;;
17725;SDS011;8983;53.156;17.960;2023-08-01T05:30:43;4.40;;;4.00;;
17725;SDS011;8983;53.156;17.960;2023-08-01T05:33:12;7.77;;;4.30;;
17725;SDS011;8983;53.156;17.960;2023-08-01T05:35:40;5.53;;;3.93;;
17725;SDS011;8983;53.156;17.960;2023-08-01T05:38:08;5.40;;;4.00;;
17725;SDS011;8983;53.156;17.960;2023-08-01T05:40:37;5.60;;;3.70;;
17725;SDS011;8983;53.156;17.960;2023-08-01T05:43:06;4.83;;;4.00;;
17725;SDS011;8983;53.156;17.960;2023-08-01T05:45:34;6.80;;;4.13;;
17725;SDS011;8983;53.156;17.960;2023-08-01T05:48:03;6.70;;;4.17;;
17725;SDS011;8983;53.156;17.960;2023-08-01T05:50:31;6.60;;;4.20;;
17725;SDS011;8983;53.156;17.960;2023-08-01T05:53:00;6.20;;;4.17;;
17725;SDS011;8983;53.156;17.960;2023-08-01T05:55:28;7.17;;;4.20;;
17725;SDS011;8983;53.156;17.960;2023-08-01T05:57:57;7.57;;;4.23;;
17725;SDS011;8983;53.156;17.960;2023-08-01T06:00:25;6.20;;;4.20;;
17725;SDS011;8983;53.156;17.960;2023-08-01T06:02:54;8.43;;;3.87;;
17725;SDS011;8983;53.156;17.960;2023-08-01T06:05:22;6.17;;;4.00;;
17725;SDS011;8983;53.156;17.960;2023-08-01T06:07:50;4.63;;;3.83;;
17725;SDS011;8983;53.156;17.960;2023-08-01T06:10:18;6.70;;;4.00;;
17725;SDS011;8983;53.156;17.960;2023-08-01T06:12:46;11.00;;;4.70;;
17725;SDS011;8983;53.156;17.960;2023-08-01T06:15:15;7.73;;;4.23;;
17725;SDS011;8983;53.156;17.960;2023-08-01T06:17:44;5.63;;;4.37;;
17725;SDS011;8983;53.156;17.960;2023-08-01T06:20:12;7.57;;;4.53;;
17725;SDS011;8983;53.156;17.960;2023-08-01T06:22:40;7.87;;;4.53;;
17725;SDS011;8983;53.156;17.960;2023-08-01T06:25:09;6.17;;;4.27;;
17725;SDS011;8983;53.156;17.960;2023-08-01T06:27:37;6.80;;;4.63;;
17725;SDS011;8983;53.156;17.960;2023-08-01T06:30:06;7.33;;;4.40;;
17725;SDS011;8983;53.156;17.960;2023-08-01T06:32:36;7.43;;;4.57;;
17725;SDS011;8983;53.156;17.960;2023-08-01T06:35:04;8.27;;;4.90;;
17725;SDS011;8983;53.156;17.960;2023-08-01T06:37:33;7.43;;;4.77;;
17725;SDS011;8983;53.156;17.960;2023-08-01T06:40:01;8.30;;;4.43;;
17725;SDS011;8983;53.156;17.960;2023-08-01T06:42:30;6.67;;;4.30;;
17725;SDS011;8983;53.156;17.960;2023-08-01T06:44:58;5.40;;;4.17;;
17725;SDS011;8983;53.156;17.960;2023-08-01T06:47:26;4.90;;;4.40;;
17725;SDS011;8983;53.156;17.960;2023-08-01T06:49:56;6.80;;;4.20;;
17725;SDS011;8983;53.156;17.960;2023-08-01T06:52:24;7.17;;;4.53;;
17725;SDS011;8983;53.156;17.960;2023-08-01T06:54:52;6.67;;;4.70;;
17725;SDS011;8983;53.156;17.960;2023-08-01T06:57:20;8.37;;;4.60;;
17725;SDS011;8983;53.156;17.960;2023-08-01T06:59:48;6.70;;;4.13;;
17725;SDS011;8983;53.156;17.960;2023-08-01T07:02:17;6.73;;;4.23;;
17725;SDS011;8983;53.156;17.960;2023-08-01T07:04:45;5.63;;;4.50;;
17725;SDS011;8983;53.156;17.960;2023-08-01T07:07:14;5.47;;;4.10;;
17725;SDS011;8983;53.156;17.960;2023-08-01T07:09:42;6.97;;;4.30;;
17725;SDS011;8983;53.156;17.960;2023-08-01T07:12:10;6.77;;;4.17;;
17725;SDS011;8983;53.156;17.960;2023-08-01T07:14:38;7.10;;;4.30;;
17725;SDS011;8983;53.156;17.960;2023-08-01T07:17:09;5.17;;;4.23;;
17725;SDS011;8983;53.156;17.960;2023-08-01T07:19:37;9.07;;;4.87;;
17725;SDS011;8983;53.156;17.960;2023-08-01T07:22:05;7.23;;;4.57;;
17725;SDS011;8983;53.156;17.960;2023-08-01T07:24:35;4.50;;;3.80;;
17725;SDS011;8983;53.156;17.960;2023-08-01T07:27:03;6.37;;;4.50;;
17725;SDS011;8983;53.156;17.960;2023-08-01T07:29:32;6.07;;;4.40;;
17725;SDS011;8983;53.156;17.960;2023-08-01T07:32:00;6.20;;;4.17;;
17725;SDS011;8983;53.156;17.960;2023-08-01T07:34:28;5.63;;;4.20;;
17725;SDS011;8983;53.156;17.960;2023-08-01T07:36:56;7.13;;;4.10;;
17725;SDS011;8983;53.156;17.960;2023-08-01T07:39:24;5.63;;;4.10;;
17725;SDS011;8983;53.156;17.960;2023-08-01T07:41:54;9.50;;;4.27;;
17725;SDS011;8983;53.156;17.960;2023-08-01T07:44:22;5.30;;;4.10;;
17725;SDS011;8983;53.156;17.960;2023-08-01T07:46:50;6.80;;;4.27;;
17725;SDS011;8983;53.156;17.960;2023-08-01T07:49:18;5.80;;;3.97;;
17725;SDS011;8983;53.156;17.960;2023-08-01T07:51:46;6.37;;;4.47;;
17725;SDS011;8983;53.156;17.960;2023-08-01T07:54:14;7.47;;;4.00;;
17725;SDS011;8983;53.156;17.960;2023-08-01T07:56:43;6.43;;;4.37;;
17725;SDS011;8983;53.156;17.960;2023-08-01T07:59:16;7.33;;;4.03;;
17725;SDS011;8983;53.156;17.960;2023-08-01T08:01:44;6.30;;;4.10;;
17725;SDS011;8983;53.156;17.960;2023-08-01T08:04:12;6.93;;;4.10;;
17725;SDS011;8983;53.156;17.960;2023-08-01T08:06:40;5.50;;;4.13;;
17725;SDS011;8983;53.156;17.960;2023-08-01T08:09:09;5.83;;;3.83;;
17725;SDS011;8983;53.156;17.960;2023-08-01T08:11:37;8.83;;;4.53;;
17725;SDS011;8983;53.156;17.960;2023-08-01T08:14:05;6.43;;;4.50;;
17725;SDS011;8983;53.156;17.960;2023-08-01T08:16:35;5.40;;;3.53;;
17725;SDS011;8983;53.156;17.960;2023-08-01T08:19:03;8.80;;;4.10;;
17725;SDS011;8983;53.156;17.960;2023-08-01T08:21:31;4.97;;;4.43;;
17725;SDS011;8983;53.156;17.960;2023-08-01T08:23:59;4.83;;;4.00;;
17725;SDS011;8983;53.156;17.960;2023-08-01T08:26:27;4.87;;;4.03;;
17725;SDS011;8983;53.156;17.960;2023-08-01T08:28:55;9.93;;;4.80;;
17725;SDS011;8983;53.156;17.960;2023-08-01T08:31:23;5.67;;;3.90;;
17725;SDS011;8983;53.156;17.960;2023-08-01T08:33:53;6.13;;;4.20;;
17725;SDS011;8983;53.156;17.960;2023-08-01T08:36:20;4.83;;;4.00;;
17725;SDS011;8983;53.156;17.960;2023-08-01T08:38:48;5.83;;;3.80;;
17725;SDS011;8983;53.156;17.960;2023-08-01T08:41:19;7.67;;;4.50;;
17725;SDS011;8983;53.156;17.960;2023-08-01T08:43:48;6.63;;;4.67;;
17725;SDS011;8983;53.156;17.960;2023-08-01T08:46:16;6.47;;;4.70;;
17725;SDS011;8983;53.156;17.960;2023-08-01T08:48:46;5.73;;;4.43;;
17725;SDS011;8983;53.156;17.960;2023-08-01T08:51:15;8.33;;;4.80;;
17725;SDS011;8983;53.156;17.960;2023-08-01T08:53:44;6.30;;;4.10;;
17725;SDS011;8983;53.156;17.960;2023-08-01T08:56:14;6.63;;;4.30;;
17725;SDS011;8983;53.156;17.960;2023-08-01T08:58:43;5.63;;;4.63;;
17725;SDS011;8983;53.156;17.960;2023-08-01T09:01:13;5.63;;;4.37;;
17725;SDS011;8983;53.156;17.960;2023-08-01T09:03:41;5.50;;;4.40;;
17725;SDS011;8983;53.156;17.960;2023-08-01T09:06:11;6.63;;;4.80;;
17725;SDS011;8983;53.156;17.960;2023-08-01T09:08:44;7.07;;;4.97;;
17725;SDS011;8983;53.156;17.960;2023-08-01T09:11:17;7.95;;;4.55;;
17725;SDS011;8983;53.156;17.960;2023-08-01T09:13:45;9.93;;;5.07;;
17725;SDS011;8983;53.156;17.960;2023-08-01T09:16:14;5.43;;;4.00;;
17725;SDS011;8983;53.156;17.960;2023-08-01T09:18:46;6.22;;;4.22;;
17725;SDS011;8983;53.156;17.960;2023-08-01T09:21:17;5.55;;;3.63;;
17725;SDS011;8983;53.156;17.960;2023-08-01T09:23:47;7.65;;;4.45;;
17725;SDS011;8983;53.156;17.960;2023-08-01T09:26:15;5.15;;;3.95;;
17725;SDS011;8983;53.156;17.960;2023-08-01T09:28:46;6.93;;;4.50;;
17725;SDS011;8983;53.156;17.960;2023-08-01T09:31:25;4.97;;;4.27;;
17725;SDS011;8983;53.156;17.960;2023-08-01T09:33:57;6.93;;;4.20;;
17725;SDS011;8983;53.156;17.960;2023-08-01T09:36:25;5.53;;;3.70;;
17725;SDS011;8983;53.156;17.960;2023-08-01T09:38:58;6.10;;;3.93;;
17725;SDS011;8983;53.156;17.960;2023-08-01T09:41:28;4.43;;;4.03;;
17725;SDS011;8983;53.156;17.960;2023-08-01T09:43:56;6.43;;;4.40;;
17725;SDS011;8983;53.156;17.960;2023-08-01T09:46:25;5.13;;;3.97;;
17725;SDS011;8983;53.156;17.960;2023-08-01T09:48:53;4.73;;;4.30;;
17725;SDS011;8983;53.156;17.960;2023-08-01T09:51:21;4.93;;;3.90;;
17725;SDS011;8983;53.156;17.960;2023-08-01T09:53:49;5.93;;;3.97;;
17725;SDS011;8983;53.156;17.960;2023-08-01T09:56:21;5.30;;;3.63;;
17725;SDS011;8983;53.156;17.960;2023-08-01T09:58:52;6.47;;;3.87;;
17725;SDS011;8983;53.156;17.960;2023-08-01T10:01:22;4.67;;;3.87;;
17725;SDS011;8983;53.156;17.960;2023-08-01T10:03:52;4.63;;;3.90;;
17725;SDS011;8983;53.156;17.960;2023-08-01T10:06:21;6.17;;;3.43;;
17725;SDS011;8983;53.156;17.960;2023-08-01T10:08:51;3.50;;;3.20;;
17725;SDS011;8983;53.156;17.960;2023-08-01T10:11:22;4.97;;;3.67;;
17725;SDS011;8983;53.156;17.960;2023-08-01T10:13:50;5.38;;;3.63;;
17725;SDS011;8983;53.156;17.960;2023-08-01T10:16:18;5.13;;;3.23;;
17725;SDS011;8983;53.156;17.960;2023-08-01T10:18:47;4.83;;;3.50;;
17725;SDS011;8983;53.156;17.960;2023-08-01T10:21:16;6.23;;;3.63;;
17725;SDS011;8983;53.156;17.960;2023-08-01T10:23:47;4.83;;;3.37;;
17725;SDS011;8983;53.156;17.960;2023-08-01T10:26:16;4.60;;;3.80;;
17725;SDS011;8983;53.156;17.960;2023-08-01T10:28:51;5.07;;;4.07;;
17725;SDS011;8983;53.156;17.960;2023-08-01T10:31:20;7.17;;;4.07;;
17725;SDS011;8983;53.156;17.960;2023-08-01T10:33:49;6.23;;;4.27;;
17725;SDS011;8983;53.156;17.960;2023-08-01T10:36:19;8.90;;;5.03;;
17725;SDS011;8983;53.156;17.960;2023-08-01T10:38:49;4.87;;;4.20;;
17725;SDS011;8983;53.156;17.960;2023-08-01T10:41:19;4.63;;;4.10;;
17725;SDS011;8983;53.156;17.960;2023-08-01T10:44:04;9.77;;;3.90;;
17725;SDS011;8983;53.156;17.960;2023-08-01T10:46:49;7.13;;;4.40;;
17725;SDS011;8983;53.156;17.960;2023-08-01T10:49:19;8.77;;;4.27;;
17725;SDS011;8983;53.156;17.960;2023-08-01T10:51:49;7.03;;;4.57;;
17725;SDS011;8983;53.156;17.960;2023-08-01T10:54:20;6.30;;;4.30;;
17725;SDS011;8983;53.156;17.960;2023-08-01T10:56:49;8.73;;;4.90;;
17725;SDS011;8983;53.156;17.960;2023-08-01T10:59:21;4.37;;;3.73;;
17725;SDS011;8983;53.156;17.960;2023-08-01T11:01:50;5.77;;;4.63;;
17725;SDS011;8983;53.156;17.960;2023-08-01T11:04:19;8.63;;;5.03;;
17725;SDS011;8983;53.156;17.960;2023-08-01T11:06:49;6.33;;;4.37;;
17725;SDS011;8983;53.156;17.960;2023-08-01T11:09:19;5.87;;;4.47;;
17725;SDS011;8983;53.156;17.960;2023-08-01T11:11:50;8.40;;;4.80;;
17725;SDS011;8983;53.156;17.960;2023-08-01T11:14:20;7.43;;;4.77;;
17725;SDS011;8983;53.156;17.960;2023-08-01T11:16:49;8.03;;;4.47;;
17725;SDS011;8983;53.156;17.960;2023-08-01T11:19:18;9.10;;;4.30;;
17725;SDS011;8983;53.156;17.960;2023-08-01T11:21:47;6.00;;;4.10;;
17725;SDS011;8983;53.156;17.960;2023-08-01T11:24:16;6.13;;;3.83;;
17725;SDS011;8983;53.156;17.960;2023-08-01T11:26:45;5.57;;;4.50;;
17725;SDS011;8983;53.156;17.960;2023-08-01T11:29:14;4.20;;;3.80;;
17725;SDS011;8983;53.156;17.960;2023-08-01T11:31:52;8.40;;;4.97;;
17725;SDS011;8983;53.156;17.960;2023-08-01T11:34:21;6.33;;;4.97;;
17725;SDS011;8983;53.156;17.960;2023-08-01T11:36:50;7.67;;;3.97;;
17725;SDS011;8983;53.156;17.960;2023-08-01T11:39:18;8.03;;;4.60;;
17725;SDS011;8983;53.156;17.960;2023-08-01T11:41:49;7.10;;;4.97;;
17725;SDS011;8983;53.156;17.960;2023-08-01T11:44:17;9.53;;;4.50;;
17725;SDS011;8983;53.156;17.960;2023-08-01T11:46:45;5.80;;;4.47;;
17725;SDS011;8983;53.156;17.960;2023-08-01T11:49:14;4.27;;;3.30;;
17725;SDS011;8983;53.156;17.960;2023-08-01T11:51:43;4.17;;;3.20;;
17725;SDS011;8983;53.156;17.960;2023-08-01T11:54:13;4.90;;;4.00;;
17725;SDS011;8983;53.156;17.960;2023-08-01T11:56:41;5.03;;;4.50;;
17725;SDS011;8983;53.156;17.960;2023-08-01T11:59:11;4.83;;;3.87;;
17725;SDS011;8983;53.156;17.960;2023-08-01T12:01:40;5.57;;;4.30;;
17725;SDS011;8983;53.156;17.960;2023-08-01T12:04:09;7.73;;;4.50;;
17725;SDS011;8983;53.156;17.960;2023-08-01T12:06:38;4.47;;;3.60;;
17725;SDS011;8983;53.156;17.960;2023-08-01T12:09:09;5.07;;;4.17;;
17725;SDS011;8983;53.156;17.960;2023-08-01T12:11:38;5.77;;;4.27;;
17725;SDS011;8983;53.156;17.960;2023-08-01T12:14:08;7.73;;;3.80;;
17725;SDS011;8983;53.156;17.960;2023-08-01T12:16:37;4.47;;;4.07;;
17725;SDS011;8983;53.156;17.960;2023-08-01T12:19:07;5.27;;;4.27;;
17725;SDS011;8983;53.156;17.960;2023-08-01T12:21:36;5.37;;;4.57;;
17725;SDS011;8983;53.156;17.960;2023-08-01T12:24:06;4.77;;;4.27;;
17725;SDS011;8983;53.156;17.960;2023-08-01T12:26:34;6.03;;;4.70;;
17725;SDS011;8983;53.156;17.960;2023-08-01T12:29:02;6.43;;;4.87;;
17725;SDS011;8983;53.156;17.960;2023-08-01T12:31:30;6.77;;;4.70;;
17725;SDS011;8983;53.156;17.960;2023-08-01T12:33:58;5.40;;;4.80;;
17725;SDS011;8983;53.156;17.960;2023-08-01T12:36:26;4.93;;;4.30;;
17725;SDS011;8983;53.156;17.960;2023-08-01T12:38:55;6.43;;;4.77;;
17725;SDS011;8983;53.156;17.960;2023-08-01T12:41:24;8.00;;;5.03;;
17725;SDS011;8983;53.156;17.960;2023-08-01T12:43:52;6.33;;;4.67;;
17725;SDS011;8983;53.156;17.960;2023-08-01T12:46:20;5.97;;;5.07;;
17725;SDS011;8983;53.156;17.960;2023-08-01T12:48:48;6.57;;;5.00;;
17725;SDS011;8983;53.156;17.960;2023-08-01T12:51:17;5.77;;;4.73;;
17725;SDS011;8983;53.156;17.960;2023-08-01T12:53:46;5.50;;;4.77;;
17725;SDS011;8983;53.156;17.960;2023-08-01T12:56:14;6.87;;;4.90;;
17725;SDS011;8983;53.156;17.960;2023-08-01T12:58:43;6.47;;;5.20;;
17725;SDS011;8983;53.156;17.960;2023-08-01T13:01:11;8.00;;;5.57;;
17725;SDS011;8983;53.156;17.960;2023-08-01T13:03:39;5.63;;;4.95;;
17725;SDS011;8983;53.156;17.960;2023-08-01T13:06:09;6.50;;;5.03;;
17725;SDS011;8983;53.156;17.960;2023-08-01T13:08:39;6.33;;;4.50;;
17725;SDS011;8983;53.156;17.960;2023-08-01T13:11:10;8.63;;;5.63;;
17725;SDS011;8983;53.156;17.960;2023-08-01T13:13:39;8.80;;;5.33;;
17725;SDS011;8983;53.156;17.960;2023-08-01T13:16:09;5.90;;;5.30;;
17725;SDS011;8983;53.156;17.960;2023-08-01T13:18:38;6.50;;;5.17;;
17725;SDS011;8983;53.156;17.960;2023-08-01T13:21:10;7.67;;;5.67;;
17725;SDS011;8983;53.156;17.960;2023-08-01T13:23:40;6.07;;;4.80;;
17725;SDS011;8983;53.156;17.960;2023-08-01T13:26:08;7.55;;;4.85;;
17725;SDS011;8983;53.156;17.960;2023-08-01T13:28:36;6.10;;;5.23;;
17725;SDS011;8983;53.156;17.960;2023-08-01T13:31:04;6.00;;;4.80;;
17725;SDS011;8983;53.156;17.960;2023-08-01T13:33:34;6.50;;;5.40;;
17725;SDS011;8983;53.156;17.960;2023-08-01T13:36:02;9.25;;;5.10;;
17725;SDS011;8983;53.156;17.960;2023-08-01T13:38:30;6.03;;;5.13;;
17725;SDS011;8983;53.156;17.960;2023-08-01T13:40:58;7.80;;;5.67;;
17725;SDS011;8983;53.156;17.960;2023-08-01T13:43:27;6.77;;;5.97;;
17725;SDS011;8983;53.156;17.960;2023-08-01T13:45:55;5.40;;;4.87;;
17725;SDS011;8983;53.156;17.960;2023-08-01T13:48:24;8.73;;;6.27;;
17725;SDS011;8983;53.156;17.960;2023-08-01T13:50:53;7.27;;;5.50;;
17725;SDS011;8983;53.156;17.960;2023-08-01T13:53:25;9.97;;;6.00;;
17725;SDS011;8983;53.156;17.960;2023-08-01T13:55:53;8.20;;;5.80;;
17725;SDS011;8983;53.156;17.960;2023-08-01T13:58:22;6.30;;;5.60;;
17725;SDS011;8983;53.156;17.960;2023-08-01T14:00:50;7.90;;;5.23;;
17725;SDS011;8983;53.156;17.960;2023-08-01T14:03:18;7.57;;;5.73;;
17725;SDS011;8983;53.156;17.960;2023-08-01T14:05:46;6.37;;;5.30;;
17725;SDS011;8983;53.156;17.960;2023-08-01T14:08:16;8.33;;;5.50;;
17725;SDS011;8983;53.156;17.960;2023-08-01T14:10:44;8.67;;;5.90;;
17725;SDS011;8983;53.156;17.960;2023-08-01T14:13:12;8.73;;;5.93;;
17725;SDS011;8983;53.156;17.960;2023-08-01T14:15:40;88.10;;;10.90;;
17725;SDS011;8983;53.156;17.960;2023-08-01T14:18:08;0.20;;;0.20;;
17725;SDS011;8983;53.156;17.960;2023-08-01T14:20:36;0.20;;;0.20;;
17725;SDS011;8983;53.156;17.960;2023-08-01T14:23:04;0.30;;;0.30;;
17725;SDS011;8983;53.156;17.960;2023-08-01T14:25:34;0.20;;;0.20;;
17725;SDS011;8983;53.156;17.960;2023-08-01T14:28:02;0.20;;;0.20;;
17725;SDS011;8983;53.156;17.960;2023-08-01T14:30:30;0.20;;;0.20;;
17725;SDS011;8983;53.156;17.960;2023-08-01T14:33:01;0.20;;;0.20;;
17725;SDS011;8983;53.156;17.960;2023-08-01T14:35:29;0.20;;;0.20;;
17725;SDS011;8983;53.156;17.960;2023-08-01T14:37:57;0.20;;;0.20;;
17725;SDS011;8983;53.156;17.960;2023-08-01T14:40:25;0.20;;;0.20;;
17725;SDS011;8983;53.156;17.960;2023-08-01T14:42:55;0.20;;;0.20;;
17725;SDS011;8983;53.156;17.960;2023-08-01T14:45:24;0.20;;;0.20;;
17725;SDS011;8983;53.156;17.960;2023-08-01T14:47:52;0.20;;;0.20;;
17725;SDS011;8983;53.156;17.960;2023-08-01T14:50:20;0.20;;;0.20;;
17725;SDS011;8983;53.156;17.960;2023-08-01T14:52:48;0.20;;;0.20;;
17725;SDS011;8983;53.156;17.960;2023-08-01T14:55:16;0.20;;;0.20;;
17725;SDS011;8983;53.156;17.960;2023-08-01T14:57:44;0.20;;;0.20;;